Buoy 21530

sailwx.info

Track history (hours):
 
Tides and Currents Weather Stations Pressure Air Temp Water Temp Dewpoint Dewpoint Depression Visibility Wind Speed Wind Dir Waves Ship Positions

Drifting buoy 21530

Last reported at 2018-Jan-20 07:00 UTC. Time now 2018-Jan-20 08:46 UTC.
Position N 22°29' W 154°17'.

Barometer 1022.3 mb
Water temperature 23.5 ° C

Date/timePositionNaut miles runAvg speedWind from/ knotsBaromVisibWave heightAir tempDewpointWater temp
2018-Jan-20 07:00N 22°29' W 154°17'1 1.3 1022.3 23.5
2018-Jan-20 06:00N 22°29' W 154°16'1 0.6 1022.3 23.5
2018-Jan-20 05:00N 22°29' W 154°16'2 1.7 1021.8 23.5
2018-Jan-20 04:00N 22°29' W 154°14'7 6.7 1021.3 23.5
2018-Jan-20 03:00N 22°28' W 154°07'0 0.0 1020.7 23.5
2018-Jan-20 01:00N 22°28' W 154°07'0 0.0 1020.2 23.4
2018-Jan-19 23:00N 22°28' W 154°07'2 0.9 1021.4 23.4
2018-Jan-19 21:00N 22°28' W 154°05'2 1.7 1023.5 23.4
2018-Jan-19 20:00N 22°28' W 154°03'1 0.8 1023.9 23.4
2018-Jan-19 19:00N 22°28' W 154°02'2 1.8 1023.9 23.4
2018-Jan-19 18:00N 22°28' W 154°01'1 0.6 1023.6 23.4
2018-Jan-19 17:00N 22°28' W 154°00'1 1.1 1023.2 23.4
2018-Jan-19 16:00N 22°28' W 153°59'1 1.1 1022.8 23.4
2018-Jan-19 15:00N 22°28' W 153°58'1 0.6 1022.4 23.5
2018-Jan-19 14:00N 22°28' W 153°57'7 7.2 1022.6 23.5
2018-Jan-19 13:00N 22°27' W 153°49'0 0.0 1022.8 23.5
2018-Jan-19 12:00N 22°27' W 153°49'0 0.0 1023.4 23.5
2018-Jan-19 08:00N 22°27' W 153°49'2 1.8 1024.7 23.7
2018-Jan-19 07:00N 22°26' W 153°47'2 1.7 1024.7 23.7
2018-Jan-19 06:00N 22°26' W 153°46'1 0.8 1024.2 23.7
2018-Jan-19 05:00N 22°26' W 153°45'1 0.8 1023.6 23.8
2018-Jan-19 04:00N 22°26' W 153°44'2 2.3 1023.3 23.8
2018-Jan-19 03:00N 22°26' W 153°42'1 0.6 1023.0 23.8
2018-Jan-19 01:00N 22°25' W 153°41'3 3.3 1022.2 23.9
2018-Jan-19 00:00N 22°25' W 153°37'3 3.3 1022.8 23.9
2018-Jan-18 23:00N 22°25' W 153°41'3 1.7 1023.5 23.9
2018-Jan-18 21:00N 22°25' W 153°37'1 0.8 1025.4 23.9
2018-Jan-18 20:00N 22°25' W 153°37'2 2.2 1025.5 23.9
2018-Jan-18 19:00N 22°25' W 153°34'1 1.3 1025.1 23.9
2018-Jan-18 18:00N 22°23' W 153°34'1 0.6 1024.5 23.9
2018-Jan-18 17:00N 22°23' W 153°33'1 1.3 1024.0 23.9
2018-Jan-18 16:00N 22°23' W 153°32'2 1.7 1023.5 23.9
2018-Jan-18 15:00N 22°23' W 153°30'0 0.0 1023.1 23.9
2018-Jan-18 14:00N 22°23' W 153°30'1 1.1 1023.0 23.9
2018-Jan-18 13:00N 22°23' W 153°29'0 0.0 1023.3 23.9
2018-Jan-18 12:00N 22°23' W 153°29'5 1.3 1023.7 23.9
2018-Jan-18 08:00N 22°22' W 153°23'1 0.6 1024.4 23.9
2018-Jan-18 07:00N 22°22' W 153°23'1 1.3 1024.4 23.9
2018-Jan-18 06:00N 22°21' W 153°22'1 1.3 1024.1 23.9
2018-Jan-18 05:00N 22°22' W 153°20'1 0.6 1023.6 23.9
2018-Jan-18 04:00N 22°22' W 153°20'2 1.7 1023.0 24.0
2018-Jan-18 03:00N 22°22' W 153°18'1 0.8 1022.7 24.0
2018-Jan-18 02:00N 22°22' W 153°17'1 1.3 1022.2 24.0
2018-Jan-18 01:00N 22°23' W 153°16'3 2.5 1022.1 24.0
2018-Jan-18 00:00N 22°24' W 153°14'0 0.0 1022.0 24.0
2018-Jan-17 23:00N 22°24' W 153°14'0 0.0 1022.8 24.0
2018-Jan-17 21:00N 22°24' W 153°14'1 0.6 1024.6 24.0
2018-Jan-17 20:00N 22°24' W 153°13'1 1.1 1024.6 23.9
2018-Jan-17 19:00N 22°24' W 153°12'0 0.0 1024.0 23.9
2018-Jan-17 18:00N 22°24' W 153°12'1 1.1 1023.4 23.9
2018-Jan-17 17:00N 22°24' W 153°11'0 0.0 1022.8 23.9
2018-Jan-17 16:00N 22°24' W 153°11'2 2.1 1022.2 23.9
2018-Jan-17 15:00N 22°25' W 153°09'1 0.6 1021.8 23.9
2018-Jan-17 14:00N 22°25' W 153°08'3 2.5 1021.9 23.9
2018-Jan-17 13:00N 22°26' W 153°06'0 0.0 1021.9 23.9
2018-Jan-17 12:00N 22°26' W 153°06'0 0.0 1022.3 23.9
2018-Jan-17 08:00N 22°26' W 153°06'1 0.8 1023.6 23.9
2018-Jan-17 07:00N 22°27' W 153°05'2 1.8 1023.1 23.9
2018-Jan-17 06:00N 22°28' W 153°04'1 0.6 1022.7 23.9
2018-Jan-17 05:00N 22°28' W 153°03'1 1.1 1022.2 23.9
2018-Jan-17 04:00N 22°28' W 153°02'1 0.6 1021.3 23.9
2018-Jan-17 03:00N 22°28' W 153°01'1 1.3 1020.6 23.9
2018-Jan-17 02:00N 22°28' W 153°00'2 1.8 1019.9 23.8
2018-Jan-17 01:00N 22°29' W 152°58'0 0.0 1019.4 23.7
2018-Jan-17 00:00N 22°29' W 152°58'5 1.2 1019.6 23.7
2018-Jan-16 20:00N 22°32' W 152°55'7 0.5 1022.7 23.2
2018-Jan-16 07:00N 22°31' W 152°47'1 0.8 1020.8 23.3
2018-Jan-16 06:00N 22°30' W 152°48'2 1.7 1020.2 23.3
2018-Jan-16 05:00N 22°30' W 152°46'1 1.3 1019.9 23.3
2018-Jan-16 04:00N 22°29' W 152°45'0 0.0 1019.3 23.4
2018-Jan-16 03:00N 22°29' W 152°45'0 0.0 1018.8 23.5
2018-Jan-16 02:00N 22°29' W 152°45'1 0.8 1018.3 23.5
2018-Jan-16 01:00N 22°29' W 152°44'0 0.0 1018.2 23.6
2018-Jan-16 00:00N 22°29' W 152°44'3 0.9 1018.2 23.6
2018-Jan-15 21:00N 22°29' W 152°41'1 0.8 1020.8 23.2
2018-Jan-15 20:00N 22°28' W 152°41'3 0.7 1021.1 23.2
2018-Jan-15 16:00N 22°28' W 152°38'1 0.6 1019.6 23.1
2018-Jan-15 15:00N 22°28' W 152°37'1 1.1 1019.2 23.1
2018-Jan-15 14:00N 22°28' W 152°36'0 0.0 1019.1 23.2
2018-Jan-15 13:00N 22°28' W 152°36'3 2.5 1019.2 23.2
2018-Jan-15 12:00N 22°29' W 152°34'1 0.2 1019.3 23.2
2018-Jan-15 08:00N 22°29' W 152°33'1 0.8 1020.3 23.3
2018-Jan-15 07:00N 22°30' W 152°32'0 0.0 1020.1 23.4
2018-Jan-15 06:00N 22°30' W 152°32'1 0.6 1019.7 23.4
2018-Jan-15 05:00N 22°31' W 152°32'1 0.6 1018.9 23.5
2018-Jan-15 04:00N 22°31' W 152°32'0 0.0 1018.1 23.5
2018-Jan-15 03:00N 22°31' W 152°32'0 0.0 1017.7 23.6
2018-Jan-15 02:00N 22°31' W 152°32'1 0.6 1017.4 23.7
2018-Jan-15 01:00N 22°32' W 152°32'0 0.0 1017.3 23.8
2018-Jan-15 00:00N 22°32' W 152°32'1 0.1 1017.3 23.9
2018-Jan-14 20:00N 22°32' W 152°33'1 0.8 1019.7 23.3
2018-Jan-14 19:00N 22°31' W 152°34'1 0.8 1019.5 23.1
2018-Jan-14 18:00N 22°31' W 152°33'1 0.6 1018.8 23.1
2018-Jan-14 17:00N 22°31' W 152°32'0 0.0 1018.1 23.1
2018-Jan-14 16:00N 22°31' W 152°32'1 1.3 1017.7 23.1
2018-Jan-14 15:00N 22°30' W 152°31'1 0.6 1017.1 23.1
2018-Jan-14 14:00N 22°29' W 152°31'0 0.0 1017.0 23.1
2018-Jan-14 13:00N 22°29' W 152°31'2 2.1 1016.6 23.1
2018-Jan-14 12:00N 22°31' W 152°29'1 0.1 1016.8 23.1
2018-Jan-14 07:00N 22°31' W 152°29'0 0.0 1017.9 23.2
2018-Jan-14 06:00N 22°31' W 152°29'1 0.6 1017.5 23.2
2018-Jan-14 05:00N 22°31' W 152°29'1 0.6 1016.8 23.2
2018-Jan-14 04:00N 22°31' W 152°29'1 0.6 1015.9 23.3
2018-Jan-14 03:00N 22°31' W 152°29'0 0.0 1015.9 23.3
2018-Jan-14 02:00N 22°31' W 152°29'0 0.0 1015.7 23.3
2018-Jan-14 01:00N 22°31' W 152°29'1 0.6 1015.5 23.3
2018-Jan-14 00:00N 22°32' W 152°29'10 0.3 1015.5 23.3
2018-Jan-12 15:00N 22°23' W 152°25'0 0.0 1016.9 23.1
2018-Jan-12 14:00N 22°23' W 152°25'5 5.0 1017.2 23.1
2018-Jan-12 13:00N 22°22' W 152°20'0 0.0 1017.5 23.1
2018-Jan-12 11:00N 22°22' W 152°20'0 0.0 1018.9 23.1
2018-Jan-12 08:00N 22°22' W 152°20'2 1.7 1020.4 23.1
2018-Jan-12 07:00N 22°22' W 152°18'0 0.0 1020.3 23.1
2018-Jan-12 06:00N 22°22' W 152°18'1 1.1 1019.7 23.1
2018-Jan-12 05:00N 22°22' W 152°17'1 0.6 1018.4 23.1
2018-Jan-12 04:00N 22°22' W 152°16'6 6.0 1017.8 23.1
2018-Jan-12 03:00N 22°20' W 152°10'0 0.0 1017.1 23.1
2018-Jan-12 02:00N 22°20' W 152°10'0 0.0 1016.9 23.1
2018-Jan-12 01:00N 22°20' W 152°10'0 0.0 1016.8 23.1
2018-Jan-12 00:00N 22°20' W 152°10'1 0.3 1017.5 23.1
2018-Jan-11 20:00N 22°19' W 152°09'1 0.6 1020.8 23.1
2018-Jan-11 19:00N 22°19' W 152°08'2 1.7 1020.8 23.1
2018-Jan-11 18:00N 22°19' W 152°07'1 0.6 1020.4 23.1
2018-Jan-11 17:00N 22°19' W 152°07'2 1.7 1020.3 23.1
2018-Jan-11 16:00N 22°19' W 152°05'2 1.8 1020.0 23.1
2018-Jan-11 15:00N 22°19' W 152°04'0 0.0 1019.5 23.1
2018-Jan-11 14:00N 22°19' W 152°04'6 5.5 1019.4 23.2
2018-Jan-11 13:00N 22°16' W 151°58'0 0.0 1019.0 23.1
2018-Jan-11 11:00N 22°16' W 151°58'1 0.4 1020.1 23.2
2018-Jan-11 08:00N 22°16' W 151°57'1 1.3 1020.7 23.2
2018-Jan-11 07:00N 22°16' W 151°56'1 1.3 1020.4 23.2
2018-Jan-11 06:00N 22°16' W 151°55'1 0.6 1019.9 23.2
2018-Jan-11 05:00N 22°16' W 151°54'2 2.2 1019.8 23.2
2018-Jan-11 04:00N 22°16' W 151°52'0 0.0 1019.2 23.2
2018-Jan-11 03:00N 22°16' W 151°52'1 1.1 1018.8 23.2
2018-Jan-11 02:00N 22°16' W 151°50'0 0.0 1018.5 23.3
2018-Jan-11 01:00N 22°16' W 151°50'1 1.1 1018.5 23.3
2018-Jan-11 00:00N 22°16' W 151°49'0 0.0 1019.0 23.2
2018-Jan-10 23:00N 22°16' W 151°49'3 1.5 1019.5 23.2
2018-Jan-10 21:00N 22°17' W 151°46'1 0.6 1021.6 23.1
2018-Jan-10 20:00N 22°17' W 151°46'1 0.6 1022.0 23.1
2018-Jan-10 19:00N 22°17' W 151°45'1 0.8 1022.0 23.1
2018-Jan-10 18:00N 22°18' W 151°44'1 0.6 1021.2 23.0
2018-Jan-10 17:00N 22°18' W 151°44'0 0.0 1020.9 23.0
2018-Jan-10 16:00N 22°18' W 151°44'1 1.1 1020.4 23.0
2018-Jan-10 15:00N 22°18' W 151°43'1 0.6 1019.8 23.0
2018-Jan-10 14:00N 22°19' W 151°43'1 0.8 1019.4 23.0
2018-Jan-10 13:00N 22°19' W 151°42'0 0.0 1019.7 23.0
2018-Jan-10 12:00N 22°19' W 151°42'4 1.0 1019.7 23.0
2018-Jan-10 08:00N 22°18' W 151°38'1 0.6 1020.6 23.1
2018-Jan-10 07:00N 22°18' W 151°37'   1020.3 23.2
Track history (hours):
 
Tides and Currents Weather Stations Pressure Air Temp Water Temp Dewpoint Dewpoint Depression Visibility Wind Speed Wind Dir Waves Ship Positions

Drifting buoy 21530

Last reported at 2018-Jan-20 07:00 UTC. Time now 2018-Jan-20 08:46 UTC.
Position N 22°29' W 154°17'.

Barometer 1022.3 mb
Water temperature 23.5 ° C

Date/timePositionNaut miles runAvg speedWind from/ knotsBaromVisibWave heightAir tempDewpointWater temp
2018-Jan-20 07:00N 22°29' W 154°17'1 1.3 1022.3 23.5
2018-Jan-20 06:00N 22°29' W 154°16'1 0.6 1022.3 23.5
2018-Jan-20 05:00N 22°29' W 154°16'2 1.7 1021.8 23.5
2018-Jan-20 04:00N 22°29' W 154°14'7 6.7 1021.3 23.5
2018-Jan-20 03:00N 22°28' W 154°07'0 0.0 1020.7 23.5
2018-Jan-20 01:00N 22°28' W 154°07'0 0.0 1020.2 23.4
2018-Jan-19 23:00N 22°28' W 154°07'2 0.9 1021.4 23.4
2018-Jan-19 21:00N 22°28' W 154°05'2 1.7 1023.5 23.4
2018-Jan-19 20:00N 22°28' W 154°03'1 0.8 1023.9 23.4
2018-Jan-19 19:00N 22°28' W 154°02'2 1.8 1023.9 23.4
2018-Jan-19 18:00N 22°28' W 154°01'1 0.6 1023.6 23.4
2018-Jan-19 17:00N 22°28' W 154°00'1 1.1 1023.2 23.4
2018-Jan-19 16:00N 22°28' W 153°59'1 1.1 1022.8 23.4
2018-Jan-19 15:00N 22°28' W 153°58'1 0.6 1022.4 23.5
2018-Jan-19 14:00N 22°28' W 153°57'7 7.2 1022.6 23.5
2018-Jan-19 13:00N 22°27' W 153°49'0 0.0 1022.8 23.5
2018-Jan-19 12:00N 22°27' W 153°49'0 0.0 1023.4 23.5
2018-Jan-19 08:00N 22°27' W 153°49'2 1.8 1024.7 23.7
2018-Jan-19 07:00N 22°26' W 153°47'2 1.7 1024.7 23.7
2018-Jan-19 06:00N 22°26' W 153°46'1 0.8 1024.2 23.7
2018-Jan-19 05:00N 22°26' W 153°45'1 0.8 1023.6 23.8
2018-Jan-19 04:00N 22°26' W 153°44'2 2.3 1023.3 23.8
2018-Jan-19 03:00N 22°26' W 153°42'1 0.6 1023.0 23.8
2018-Jan-19 01:00N 22°25' W 153°41'3 3.3 1022.2 23.9
2018-Jan-19 00:00N 22°25' W 153°37'3 3.3 1022.8 23.9
2018-Jan-18 23:00N 22°25' W 153°41'3 1.7 1023.5 23.9
2018-Jan-18 21:00N 22°25' W 153°37'1 0.8 1025.4 23.9
2018-Jan-18 20:00N 22°25' W 153°37'2 2.2 1025.5 23.9
2018-Jan-18 19:00N 22°25' W 153°34'1 1.3 1025.1 23.9
2018-Jan-18 18:00N 22°23' W 153°34'1 0.6 1024.5 23.9
2018-Jan-18 17:00N 22°23' W 153°33'1 1.3 1024.0 23.9
2018-Jan-18 16:00N 22°23' W 153°32'2 1.7 1023.5 23.9
2018-Jan-18 15:00N 22°23' W 153°30'0 0.0 1023.1 23.9
2018-Jan-18 14:00N 22°23' W 153°30'1 1.1 1023.0 23.9
2018-Jan-18 13:00N 22°23' W 153°29'0 0.0 1023.3 23.9
2018-Jan-18 12:00N 22°23' W 153°29'5 1.3 1023.7 23.9
2018-Jan-18 08:00N 22°22' W 153°23'1 0.6 1024.4 23.9
2018-Jan-18 07:00N 22°22' W 153°23'1 1.3 1024.4 23.9
2018-Jan-18 06:00N 22°21' W 153°22'1 1.3 1024.1 23.9
2018-Jan-18 05:00N 22°22' W 153°20'1 0.6 1023.6 23.9
2018-Jan-18 04:00N 22°22' W 153°20'2 1.7 1023.0 24.0
2018-Jan-18 03:00N 22°22' W 153°18'1 0.8 1022.7 24.0
2018-Jan-18 02:00N 22°22' W 153°17'1 1.3 1022.2 24.0
2018-Jan-18 01:00N 22°23' W 153°16'3 2.5 1022.1 24.0
2018-Jan-18 00:00N 22°24' W 153°14'0 0.0 1022.0 24.0
2018-Jan-17 23:00N 22°24' W 153°14'0 0.0 1022.8 24.0
2018-Jan-17 21:00N 22°24' W 153°14'1 0.6 1024.6 24.0
2018-Jan-17 20:00N 22°24' W 153°13'1 1.1 1024.6 23.9
2018-Jan-17 19:00N 22°24' W 153°12'0 0.0 1024.0 23.9
2018-Jan-17 18:00N 22°24' W 153°12'1 1.1 1023.4 23.9
2018-Jan-17 17:00N 22°24' W 153°11'0 0.0 1022.8 23.9
2018-Jan-17 16:00N 22°24' W 153°11'2 2.1 1022.2 23.9
2018-Jan-17 15:00N 22°25' W 153°09'1 0.6 1021.8 23.9
2018-Jan-17 14:00N 22°25' W 153°08'3 2.5 1021.9 23.9
2018-Jan-17 13:00N 22°26' W 153°06'0 0.0 1021.9 23.9
2018-Jan-17 12:00N 22°26' W 153°06'0 0.0 1022.3 23.9
2018-Jan-17 08:00N 22°26' W 153°06'1 0.8 1023.6 23.9
2018-Jan-17 07:00N 22°27' W 153°05'2 1.8 1023.1 23.9
2018-Jan-17 06:00N 22°28' W 153°04'1 0.6 1022.7 23.9
2018-Jan-17 05:00N 22°28' W 153°03'1 1.1 1022.2 23.9
2018-Jan-17 04:00N 22°28' W 153°02'1 0.6 1021.3 23.9
2018-Jan-17 03:00N 22°28' W 153°01'1 1.3 1020.6 23.9
2018-Jan-17 02:00N 22°28' W 153°00'2 1.8 1019.9 23.8
2018-Jan-17 01:00N 22°29' W 152°58'0 0.0 1019.4 23.7
2018-Jan-17 00:00N 22°29' W 152°58'5 1.2 1019.6 23.7
2018-Jan-16 20:00N 22°32' W 152°55'7 0.5 1022.7 23.2
2018-Jan-16 07:00N 22°31' W 152°47'1 0.8 1020.8 23.3
2018-Jan-16 06:00N 22°30' W 152°48'2 1.7 1020.2 23.3
2018-Jan-16 05:00N 22°30' W 152°46'1 1.3 1019.9 23.3
2018-Jan-16 04:00N 22°29' W 152°45'0 0.0 1019.3 23.4
2018-Jan-16 03:00N 22°29' W 152°45'0 0.0 1018.8 23.5
2018-Jan-16 02:00N 22°29' W 152°45'1 0.8 1018.3 23.5
2018-Jan-16 01:00N 22°29' W 152°44'0 0.0 1018.2 23.6
2018-Jan-16 00:00N 22°29' W 152°44'3 0.9 1018.2 23.6
2018-Jan-15 21:00N 22°29' W 152°41'1 0.8 1020.8 23.2
2018-Jan-15 20:00N 22°28' W 152°41'3 0.7 1021.1 23.2
2018-Jan-15 16:00N 22°28' W 152°38'1 0.6 1019.6 23.1
2018-Jan-15 15:00N 22°28' W 152°37'1 1.1 1019.2 23.1
2018-Jan-15 14:00N 22°28' W 152°36'0 0.0 1019.1 23.2
2018-Jan-15 13:00N 22°28' W 152°36'3 2.5 1019.2 23.2
2018-Jan-15 12:00N 22°29' W 152°34'1 0.2 1019.3 23.2
2018-Jan-15 08:00N 22°29' W 152°33'1 0.8 1020.3 23.3
2018-Jan-15 07:00N 22°30' W 152°32'0 0.0 1020.1 23.4
2018-Jan-15 06:00N 22°30' W 152°32'1 0.6 1019.7 23.4
2018-Jan-15 05:00N 22°31' W 152°32'1 0.6 1018.9 23.5
2018-Jan-15 04:00N 22°31' W 152°32'0 0.0 1018.1 23.5
2018-Jan-15 03:00N 22°31' W 152°32'0 0.0 1017.7 23.6
2018-Jan-15 02:00N 22°31' W 152°32'1 0.6 1017.4 23.7
2018-Jan-15 01:00N 22°32' W 152°32'0 0.0 1017.3 23.8
2018-Jan-15 00:00N 22°32' W 152°32'1 0.1 1017.3 23.9
2018-Jan-14 20:00N 22°32' W 152°33'1 0.8 1019.7 23.3
2018-Jan-14 19:00N 22°31' W 152°34'1 0.8 1019.5 23.1
2018-Jan-14 18:00N 22°31' W 152°33'1 0.6 1018.8 23.1
2018-Jan-14 17:00N 22°31' W 152°32'0 0.0 1018.1 23.1
2018-Jan-14 16:00N 22°31' W 152°32'1 1.3 1017.7 23.1
2018-Jan-14 15:00N 22°30' W 152°31'1 0.6 1017.1 23.1
2018-Jan-14 14:00N 22°29' W 152°31'0 0.0 1017.0 23.1
2018-Jan-14 13:00N 22°29' W 152°31'2 2.1 1016.6 23.1
2018-Jan-14 12:00N 22°31' W 152°29'1 0.1 1016.8 23.1
2018-Jan-14 07:00N 22°31' W 152°29'0 0.0 1017.9 23.2
2018-Jan-14 06:00N 22°31' W 152°29'1 0.6 1017.5 23.2
2018-Jan-14 05:00N 22°31' W 152°29'1 0.6 1016.8 23.2
2018-Jan-14 04:00N 22°31' W 152°29'1 0.6 1015.9 23.3
2018-Jan-14 03:00N 22°31' W 152°29'0 0.0 1015.9 23.3
2018-Jan-14 02:00N 22°31' W 152°29'0 0.0 1015.7 23.3
2018-Jan-14 01:00N 22°31' W 152°29'1 0.6 1015.5 23.3
2018-Jan-14 00:00N 22°32' W 152°29'10 0.3 1015.5 23.3
2018-Jan-12 15:00N 22°23' W 152°25'0 0.0 1016.9 23.1
2018-Jan-12 14:00N 22°23' W 152°25'5 5.0 1017.2 23.1
2018-Jan-12 13:00N 22°22' W 152°20'0 0.0 1017.5 23.1
2018-Jan-12 11:00N 22°22' W 152°20'0 0.0 1018.9 23.1
2018-Jan-12 08:00N 22°22' W 152°20'2 1.7 1020.4 23.1
2018-Jan-12 07:00N 22°22' W 152°18'0 0.0 1020.3 23.1
2018-Jan-12 06:00N 22°22' W 152°18'1 1.1 1019.7 23.1
2018-Jan-12 05:00N 22°22' W 152°17'1 0.6 1018.4 23.1
2018-Jan-12 04:00N 22°22' W 152°16'6 6.0 1017.8 23.1
2018-Jan-12 03:00N 22°20' W 152°10'0 0.0 1017.1 23.1
2018-Jan-12 02:00N 22°20' W 152°10'0 0.0 1016.9 23.1
2018-Jan-12 01:00N 22°20' W 152°10'0 0.0 1016.8 23.1
2018-Jan-12 00:00N 22°20' W 152°10'1 0.3 1017.5 23.1
2018-Jan-11 20:00N 22°19' W 152°09'1 0.6 1020.8 23.1
2018-Jan-11 19:00N 22°19' W 152°08'2 1.7 1020.8 23.1
2018-Jan-11 18:00N 22°19' W 152°07'1 0.6 1020.4 23.1
2018-Jan-11 17:00N 22°19' W 152°07'2 1.7 1020.3 23.1
2018-Jan-11 16:00N 22°19' W 152°05'2 1.8 1020.0 23.1
2018-Jan-11 15:00N 22°19' W 152°04'0 0.0 1019.5 23.1
2018-Jan-11 14:00N 22°19' W 152°04'6 5.5 1019.4 23.2
2018-Jan-11 13:00N 22°16' W 151°58'0 0.0 1019.0 23.1
2018-Jan-11 11:00N 22°16' W 151°58'1 0.4 1020.1 23.2
2018-Jan-11 08:00N 22°16' W 151°57'1 1.3 1020.7 23.2
2018-Jan-11 07:00N 22°16' W 151°56'1 1.3 1020.4 23.2
2018-Jan-11 06:00N 22°16' W 151°55'1 0.6 1019.9 23.2
2018-Jan-11 05:00N 22°16' W 151°54'2 2.2 1019.8 23.2
2018-Jan-11 04:00N 22°16' W 151°52'0 0.0 1019.2 23.2
2018-Jan-11 03:00N 22°16' W 151°52'1 1.1 1018.8 23.2
2018-Jan-11 02:00N 22°16' W 151°50'0 0.0 1018.5 23.3
2018-Jan-11 01:00N 22°16' W 151°50'1 1.1 1018.5 23.3
2018-Jan-11 00:00N 22°16' W 151°49'0 0.0 1019.0 23.2
2018-Jan-10 23:00N 22°16' W 151°49'3 1.5 1019.5 23.2
2018-Jan-10 21:00N 22°17' W 151°46'1 0.6 1021.6 23.1
2018-Jan-10 20:00N 22°17' W 151°46'1 0.6 1022.0 23.1
2018-Jan-10 19:00N 22°17' W 151°45'1 0.8 1022.0 23.1
2018-Jan-10 18:00N 22°18' W 151°44'1 0.6 1021.2 23.0
2018-Jan-10 17:00N 22°18' W 151°44'0 0.0 1020.9 23.0
2018-Jan-10 16:00N 22°18' W 151°44'1 1.1 1020.4 23.0
2018-Jan-10 15:00N 22°18' W 151°43'1 0.6 1019.8 23.0
2018-Jan-10 14:00N 22°19' W 151°43'1 0.8 1019.4 23.0
2018-Jan-10 13:00N 22°19' W 151°42'0 0.0 1019.7 23.0
2018-Jan-10 12:00N 22°19' W 151°42'4 1.0 1019.7 23.0
2018-Jan-10 08:00N 22°18' W 151°38'1 0.6 1020.6 23.1
2018-Jan-10 07:00N 22°18' W 151°37'   1020.3 23.2

Dump ship's entire track history